createdAt,value
2024-05-09T00:00:40.855Z,9.61
2024-05-09T00:03:27.106Z,9.55
2024-05-09T00:06:13.226Z,9.56
2024-05-09T00:08:58.586Z,9.56
2024-05-09T00:11:43.740Z,9.78
2024-05-09T00:14:30.085Z,9.84
2024-05-09T00:17:15.524Z,9.60
2024-05-09T00:20:01.041Z,9.27
2024-05-09T00:22:46.470Z,9.20
2024-05-09T00:25:32.126Z,9.21
2024-05-09T00:28:17.579Z,8.99
2024-05-09T00:31:03.157Z,9.26
2024-05-09T00:33:48.842Z,9.18
2024-05-09T00:36:34.269Z,9.26
2024-05-09T00:39:19.393Z,8.92
2024-05-09T00:42:04.999Z,9.08
2024-05-09T00:44:50.131Z,8.89
2024-05-09T00:47:36.476Z,8.91
2024-05-09T00:50:29.843Z,8.48
2024-05-09T00:53:21.834Z,8.71
2024-05-09T00:56:11.840Z,8.78
2024-05-09T00:58:57.528Z,8.58
2024-05-09T01:01:45.773Z,8.74
2024-05-09T01:04:31.119Z,8.82
2024-05-09T01:07:16.790Z,8.87
2024-05-09T01:10:02.414Z,9.05
2024-05-09T01:12:47.657Z,9.01
2024-05-09T01:15:34.327Z,9.11
2024-05-09T01:18:20.238Z,8.90
2024-05-09T01:21:08.307Z,8.63
2024-05-09T01:23:53.520Z,8.54
2024-05-09T01:26:38.608Z,8.37
2024-05-09T01:29:24.441Z,8.37
2024-05-09T01:32:09.703Z,8.35
2024-05-09T01:34:56.284Z,8.19
2024-05-09T01:37:41.676Z,8.63
2024-05-09T01:40:36.323Z,8.30
2024-05-09T01:43:24.522Z,7.91
2024-05-09T01:46:19.138Z,7.95
2024-05-09T01:49:04.795Z,8.32
2024-05-09T01:51:50.316Z,8.48
2024-05-09T01:54:37.203Z,8.36
2024-05-09T01:57:22.574Z,8.67
2024-05-09T02:00:10.297Z,8.12
2024-05-09T02:02:55.609Z,7.83
2024-05-09T02:05:42.443Z,7.93
2024-05-09T02:08:27.649Z,7.96
2024-05-09T02:11:13.478Z,7.79
2024-05-09T02:13:58.761Z,7.77
2024-05-09T02:16:44.285Z,8.07
2024-05-09T02:19:29.921Z,8.55
2024-05-09T02:22:15.300Z,8.31
2024-05-09T02:25:00.841Z,8.25
2024-05-09T02:27:45.793Z,7.97
2024-05-09T02:30:39.269Z,7.79
2024-05-09T02:33:27.103Z,8.11
2024-05-09T02:36:12.757Z,7.77
2024-05-09T02:38:58.202Z,7.65
2024-05-09T02:41:43.300Z,7.61
2024-05-09T02:44:28.712Z,7.54
2024-05-09T02:47:14.320Z,7.55
2024-05-09T02:49:59.795Z,7.61
2024-05-09T02:52:45.359Z,7.58
2024-05-09T02:55:30.911Z,7.31
2024-05-09T02:58:16.468Z,7.58
2024-05-09T03:01:02.145Z,7.43
2024-05-09T03:03:48.447Z,7.72
2024-05-09T03:06:34.136Z,7.77
2024-05-09T03:09:19.338Z,7.70
2024-05-09T03:12:05.465Z,8.31
2024-05-09T03:14:50.895Z,7.77
2024-05-09T03:17:36.561Z,7.60
2024-05-09T03:20:27.352Z,7.67
2024-05-09T03:23:16.150Z,7.65
2024-05-09T03:26:01.675Z,7.57
2024-05-09T03:28:47.265Z,7.52
2024-05-09T03:31:33.147Z,7.64
2024-05-09T03:34:18.484Z,7.64
2024-05-09T03:37:04.187Z,7.62
2024-05-09T03:39:49.815Z,7.53
2024-05-09T03:42:40.681Z,7.53
2024-05-09T03:45:26.053Z,7.66
2024-05-09T03:48:12.123Z,7.54
2024-05-09T03:50:57.669Z,7.59
2024-05-09T03:53:43.266Z,7.42
2024-05-09T03:56:28.828Z,7.45
2024-05-09T03:59:14.226Z,7.39
2024-05-09T04:01:59.777Z,7.40
2024-05-09T04:04:45.401Z,7.44
2024-05-09T04:07:37.792Z,7.56
2024-05-09T04:10:30.505Z,7.54
2024-05-09T04:13:18.867Z,7.49
2024-05-09T04:16:05.146Z,7.78
2024-05-09T04:18:50.643Z,7.77
2024-05-09T04:21:36.129Z,7.70
2024-05-09T04:24:21.569Z,7.67
2024-05-09T04:27:06.966Z,7.92
2024-05-09T04:29:54.679Z,8.09
2024-05-09T04:32:40.103Z,8.07
2024-05-09T04:35:26.379Z,8.43
2024-05-09T04:38:14.610Z,8.19
2024-05-09T04:41:01.490Z,8.16
2024-05-09T04:43:47.796Z,7.91
2024-05-09T04:46:33.410Z,7.61
2024-05-09T04:49:18.886Z,7.49
2024-05-09T04:52:04.540Z,7.96
2024-05-09T04:54:49.712Z,8.26
2024-05-09T04:57:35.074Z,7.96
2024-05-09T05:00:28.472Z,8.20
2024-05-09T05:03:23.872Z,8.33
2024-05-09T05:06:09.503Z,8.13
2024-05-09T05:08:54.720Z,7.67
2024-05-09T05:11:39.809Z,7.91
2024-05-09T05:14:25.351Z,8.04
2024-05-09T05:17:10.363Z,8.05
2024-05-09T05:19:56.747Z,8.22
2024-05-09T05:22:43.586Z,7.93
2024-05-09T05:25:29.045Z,8.11
2024-05-09T05:28:17.421Z,7.97
2024-05-09T05:31:02.950Z,7.73
2024-05-09T05:33:48.900Z,8.07
2024-05-09T05:36:34.144Z,8.17
2024-05-09T05:39:29.439Z,8.91
2024-05-09T05:42:14.807Z,8.48
2024-05-09T05:45:00.789Z,8.72
2024-05-09T05:47:46.379Z,8.95
2024-05-09T05:50:36.207Z,8.98
2024-05-09T05:53:23.308Z,8.47
2024-05-09T05:56:08.845Z,8.70
2024-05-09T05:58:54.221Z,9.10
2024-05-09T06:01:39.996Z,9.27
2024-05-09T06:04:25.578Z,9.57
2024-05-09T06:07:11.197Z,9.35
2024-05-09T06:09:56.592Z,9.47
2024-05-09T06:12:41.735Z,9.28
2024-05-09T06:15:32.360Z,9.39
2024-05-09T06:18:17.912Z,9.62
2024-05-09T06:21:03.653Z,9.88
2024-05-09T06:23:53.368Z,9.88
2024-05-09T06:26:43.613Z,9.91
2024-05-09T06:29:29.280Z,9.57
2024-05-09T06:32:17.324Z,10.03
2024-05-09T06:35:02.807Z,10.08
2024-05-09T06:37:48.431Z,10.24
2024-05-09T06:40:37.646Z,10.49
2024-05-09T06:43:25.077Z,10.39
2024-05-09T06:46:10.519Z,10.41
2024-05-09T06:49:04.264Z,10.70
2024-05-09T06:51:49.820Z,10.28
2024-05-09T06:54:35.034Z,11.09
2024-05-09T06:57:21.315Z,11.17
2024-05-09T07:00:10.245Z,11.58
2024-05-09T07:02:59.689Z,12.15
2024-05-09T07:05:48.656Z,12.28
2024-05-09T07:08:35.113Z,12.67
2024-05-09T07:11:20.575Z,13.18
2024-05-09T07:14:13.881Z,13.67
2024-05-09T07:17:00.345Z,14.72
2024-05-09T07:19:46.723Z,15.96
2024-05-09T07:22:31.828Z,15.57
2024-05-09T07:25:18.807Z,16.33
2024-05-09T07:28:04.573Z,16.50
2024-05-09T07:30:49.797Z,16.52
2024-05-09T07:33:35.530Z,17.02
2024-05-09T07:36:20.752Z,17.23
2024-05-09T07:39:06.038Z,17.23
2024-05-09T07:41:51.150Z,17.08
2024-05-09T07:44:36.481Z,17.76
2024-05-09T07:48:32.094Z,17.64
2024-05-09T07:53:37.788Z,18.00
2024-05-09T07:56:22.637Z,18.23
2024-05-09T07:59:09.195Z,19.58
2024-05-09T08:01:54.244Z,19.72
2024-05-09T08:04:39.853Z,19.61
2024-05-09T08:07:26.524Z,18.52
2024-05-09T08:10:15.391Z,19.38
2024-05-09T08:13:04.032Z,19.24
2024-05-09T08:15:49.369Z,20.08
2024-05-09T08:18:34.835Z,19.47
2024-05-09T08:21:20.335Z,19.62
2024-05-09T08:24:07.899Z,20.44
2024-05-09T08:26:53.183Z,20.14
2024-05-09T08:29:38.570Z,19.55
2024-05-09T08:32:23.876Z,20.04
2024-05-09T08:35:09.829Z,20.39
2024-05-09T08:38:02.809Z,20.14
2024-05-09T08:40:50.502Z,19.94
2024-05-09T08:43:39.029Z,19.91
2024-05-09T08:46:29.330Z,19.09
2024-05-09T08:49:16.424Z,20.46
2024-05-09T08:52:01.977Z,20.23
2024-05-09T08:54:47.368Z,20.22
2024-05-09T08:57:38.879Z,21.00
2024-05-09T09:00:35.857Z,20.57
2024-05-09T09:03:30.098Z,21.05
2024-05-09T09:06:21.869Z,21.01
2024-05-09T09:09:10.541Z,21.09
2024-05-09T09:11:55.671Z,21.04
2024-05-09T09:14:41.009Z,21.32
2024-05-09T09:17:26.514Z,21.47
2024-05-09T09:20:16.596Z,20.88
2024-05-09T09:23:05.037Z,21.58
2024-05-09T09:25:50.992Z,21.46
2024-05-09T09:28:37.238Z,21.55
2024-05-09T09:31:23.576Z,22.18
2024-05-09T09:34:09.431Z,21.33
2024-05-09T09:37:07.109Z,21.82
2024-05-09T09:39:54.191Z,22.02
2024-05-09T09:42:43.160Z,21.81
2024-05-09T09:45:29.664Z,21.91
2024-05-09T09:48:16.485Z,22.62
2024-05-09T09:51:05.460Z,22.66
2024-05-09T09:53:52.671Z,22.27
2024-05-09T09:56:42.068Z,22.55
2024-05-09T09:59:28.791Z,22.37
2024-05-09T10:02:14.474Z,22.25
2024-05-09T10:05:03.851Z,22.40
2024-05-09T10:07:50.591Z,22.36
2024-05-09T10:10:36.514Z,21.91
2024-05-09T10:13:35.307Z,21.31
2024-05-09T10:16:24.174Z,20.81
2024-05-09T10:19:26.552Z,20.12
2024-05-09T10:22:12.374Z,21.02
2024-05-09T10:25:07.494Z,21.71
2024-05-09T10:27:56.041Z,21.03
2024-05-09T10:30:43.328Z,21.69
2024-05-09T10:33:52.684Z,21.80
2024-05-09T10:36:43.580Z,21.53
2024-05-09T10:39:38.986Z,22.57
2024-05-09T10:42:26.796Z,21.91
2024-05-09T10:45:15.418Z,21.48
2024-05-09T10:48:02.543Z,22.30
2024-05-09T10:50:50.041Z,21.24
2024-05-09T10:53:46.449Z,22.32
2024-05-09T10:56:31.713Z,21.89
2024-05-09T10:59:16.863Z,22.61
2024-05-09T11:02:10.327Z,22.69
2024-05-09T11:04:56.066Z,22.94
2024-05-09T11:07:43.118Z,23.30
2024-05-09T11:10:33.826Z,22.58
2024-05-09T11:13:42.210Z,23.54
2024-05-09T11:16:27.577Z,23.82
2024-05-09T11:19:14.511Z,22.70
2024-05-09T11:22:02.157Z,22.78
2024-05-09T11:24:48.617Z,23.36
2024-05-09T11:27:33.849Z,23.73
2024-05-09T11:33:11.727Z,24.13
2024-05-09T11:35:59.603Z,23.60
2024-05-09T11:38:45.238Z,22.86
2024-05-09T11:41:31.353Z,23.62
2024-05-09T11:44:16.594Z,23.86
2024-05-09T11:47:04.809Z,24.29
2024-05-09T11:49:50.375Z,23.16
2024-05-09T11:52:35.674Z,23.16
2024-05-09T11:55:26.834Z,23.68
2024-05-09T11:58:15.033Z,23.81
2024-05-09T12:01:01.987Z,24.09
2024-05-09T12:03:49.369Z,22.57
2024-05-09T12:06:36.032Z,22.55
2024-05-09T12:09:21.763Z,23.80
2024-05-09T12:12:06.940Z,24.24
2024-05-09T12:14:56.173Z,24.00
2024-05-09T12:17:41.711Z,24.51
2024-05-09T12:20:37.032Z,23.92
2024-05-09T12:23:24.583Z,24.41
2024-05-09T12:26:10.815Z,24.04
2024-05-09T12:28:56.048Z,24.21
2024-05-09T12:31:41.820Z,24.36
2024-05-09T12:34:27.230Z,24.31
2024-05-09T12:37:13.847Z,24.35
2024-05-09T12:39:59.421Z,23.17
2024-05-09T12:42:44.962Z,22.69
2024-05-09T12:45:33.231Z,21.30
2024-05-09T12:48:18.710Z,21.80
2024-05-09T12:51:05.882Z,21.31
2024-05-09T12:53:51.673Z,22.00
2024-05-09T12:56:36.913Z,22.78
2024-05-09T12:59:22.095Z,23.61
2024-05-09T13:02:07.687Z,24.42
2024-05-09T13:04:53.278Z,24.22
2024-05-09T13:07:40.280Z,23.80
2024-05-09T13:10:32.019Z,24.30
2024-05-09T13:13:18.974Z,24.34
2024-05-09T13:16:05.140Z,24.05
2024-05-09T13:18:50.400Z,23.81
2024-05-09T13:21:36.533Z,23.00
2024-05-09T13:24:22.092Z,22.85
2024-05-09T13:27:07.533Z,23.19
2024-05-09T13:29:52.665Z,23.31
2024-05-09T13:32:39.483Z,23.68
2024-05-09T13:35:24.833Z,23.91
2024-05-09T13:38:11.097Z,24.04
2024-05-09T13:40:56.374Z,24.02
2024-05-09T13:43:42.794Z,23.92
2024-05-09T13:46:28.061Z,23.79
2024-05-09T13:49:16.896Z,23.98
2024-05-09T13:52:02.342Z,23.55
2024-05-09T13:54:49.976Z,22.89
2024-05-09T13:57:35.720Z,23.12
2024-05-09T14:03:09.580Z,23.66
2024-05-09T14:05:56.110Z,23.23
2024-05-09T14:08:41.966Z,22.92
2024-05-09T14:11:27.578Z,23.00
2024-05-09T14:14:12.982Z,23.22
2024-05-09T14:16:58.500Z,22.72
2024-05-09T14:19:44.223Z,22.61
2024-05-09T14:22:30.219Z,22.00
2024-05-09T14:25:15.513Z,21.67
2024-05-09T14:28:01.157Z,21.35
2024-05-09T14:30:46.726Z,21.18
2024-05-09T14:33:32.485Z,21.51
2024-05-09T14:36:22.101Z,21.56
2024-05-09T14:39:07.471Z,21.51
2024-05-09T14:41:52.665Z,21.50
2024-05-09T14:44:37.926Z,21.62
2024-05-09T14:47:23.809Z,21.55
2024-05-09T14:50:13.898Z,21.72
2024-05-09T14:53:05.915Z,21.38
2024-05-09T14:55:51.437Z,21.50
2024-05-09T14:58:37.043Z,21.75
2024-05-09T15:01:24.456Z,21.33
2024-05-09T15:04:10.079Z,21.24
2024-05-09T15:06:56.630Z,21.33
2024-05-09T15:09:42.368Z,21.28
2024-05-09T15:12:27.915Z,21.21
2024-05-09T15:15:13.130Z,21.70
2024-05-09T15:17:59.062Z,22.01
2024-05-09T15:20:45.809Z,21.85
2024-05-09T15:23:31.817Z,21.73
2024-05-09T15:26:17.065Z,21.88
2024-05-09T15:29:02.720Z,21.59
2024-05-09T15:31:48.353Z,21.39
2024-05-09T15:34:34.013Z,20.80
2024-05-09T15:37:21.028Z,20.77
2024-05-09T15:40:15.383Z,20.49
2024-05-09T15:43:10.531Z,20.45
2024-05-09T15:45:57.262Z,20.38
2024-05-09T15:48:44.765Z,20.39
2024-05-09T15:51:30.722Z,20.19
2024-05-09T15:54:17.524Z,20.00
2024-05-09T15:57:02.711Z,19.90
2024-05-09T15:59:48.816Z,19.82
2024-05-09T16:02:33.966Z,19.50
2024-05-09T16:05:19.995Z,19.47
2024-05-09T16:08:07.244Z,19.29
2024-05-09T16:10:52.687Z,19.20
2024-05-09T16:13:38.232Z,19.00
2024-05-09T16:16:23.841Z,19.15
2024-05-09T16:19:09.840Z,19.10
2024-05-09T16:21:56.310Z,19.04
2024-05-09T16:24:43.086Z,19.01
2024-05-09T16:27:28.618Z,19.21
2024-05-09T16:30:21.298Z,19.14
2024-05-09T16:33:13.664Z,19.10
2024-05-09T16:35:59.631Z,19.00
2024-05-09T16:38:45.539Z,18.82
2024-05-09T16:41:32.230Z,18.74
2024-05-09T16:44:18.074Z,18.68
2024-05-09T16:47:06.237Z,18.52
2024-05-09T16:49:52.916Z,18.48
2024-05-09T16:52:38.466Z,18.38
2024-05-09T16:55:26.833Z,18.45
2024-05-09T16:58:14.296Z,18.54
2024-05-09T17:00:59.678Z,18.38
2024-05-09T17:03:45.167Z,18.13
2024-05-09T17:06:30.839Z,17.98
2024-05-09T17:09:19.694Z,18.04
2024-05-09T17:12:07.688Z,17.95
2024-05-09T17:14:52.882Z,17.93
2024-05-09T17:17:38.619Z,17.98
2024-05-09T17:20:31.665Z,17.58
2024-05-09T17:23:20.819Z,17.43
2024-05-09T17:26:08.944Z,17.60
2024-05-09T17:28:55.076Z,17.62
2024-05-09T17:31:40.297Z,17.63
2024-05-09T17:34:26.013Z,17.41
2024-05-09T17:37:13.475Z,17.46
2024-05-09T17:39:59.082Z,17.13
2024-05-09T17:42:44.432Z,17.02
2024-05-09T17:45:30.332Z,17.19
2024-05-09T17:48:17.505Z,17.04
2024-05-09T17:51:04.365Z,17.12
2024-05-09T17:53:49.386Z,16.92
2024-05-09T17:56:34.428Z,17.14
2024-05-09T17:59:19.558Z,16.89
2024-05-09T18:02:05.423Z,16.75
2024-05-09T18:04:50.881Z,16.51
2024-05-09T18:07:37.800Z,16.55
2024-05-09T18:10:29.801Z,16.59
2024-05-09T18:13:21.207Z,16.43
2024-05-09T18:16:07.294Z,16.21
2024-05-09T18:18:53.104Z,16.09
2024-05-09T18:21:38.431Z,16.10
2024-05-09T18:24:24.673Z,16.14
2024-05-09T18:27:10.889Z,16.03
2024-05-09T18:29:56.208Z,16.06
2024-05-09T18:32:41.427Z,15.81
2024-05-09T18:35:27.075Z,15.72
2024-05-09T18:38:13.133Z,15.79
2024-05-09T18:40:58.570Z,15.50
2024-05-09T18:43:45.483Z,15.38
2024-05-09T18:46:34.158Z,15.28
2024-05-09T18:49:19.638Z,15.25
2024-05-09T18:52:05.484Z,15.02
2024-05-09T18:54:51.747Z,15.07
2024-05-09T18:57:37.157Z,15.00
2024-05-09T19:00:33.205Z,14.86
2024-05-09T19:03:22.555Z,14.89
2024-05-09T19:06:08.563Z,14.82
2024-05-09T19:08:53.809Z,14.77
2024-05-09T19:11:42.266Z,15.09
2024-05-09T19:14:27.780Z,14.80
2024-05-09T19:17:14.314Z,14.64
2024-05-09T19:20:00.004Z,14.51
2024-05-09T19:22:45.124Z,14.45
2024-05-09T19:25:30.293Z,14.67
2024-05-09T19:28:15.337Z,14.51
2024-05-09T19:31:01.560Z,14.49
2024-05-09T19:33:47.324Z,14.17
2024-05-09T19:36:33.644Z,14.17
2024-05-09T19:39:19.070Z,14.09
2024-05-09T19:42:04.742Z,13.94
2024-05-09T19:44:50.278Z,14.00
2024-05-09T19:47:35.854Z,13.82
2024-05-09T19:50:30.180Z,13.82
2024-05-09T19:53:22.252Z,14.13
2024-05-09T19:56:07.839Z,13.77
2024-05-09T19:58:55.070Z,13.63
2024-05-09T20:01:40.612Z,13.57
2024-05-09T20:04:25.964Z,13.52
2024-05-09T20:07:12.567Z,13.67
2024-05-09T20:09:58.017Z,13.70
2024-05-09T20:12:43.617Z,13.48
2024-05-09T20:15:29.058Z,13.42
2024-05-09T20:18:16.599Z,13.21
2024-05-09T20:21:02.819Z,13.45
2024-05-09T20:23:48.483Z,13.53
2024-05-09T20:26:33.527Z,13.52
2024-05-09T20:29:18.903Z,13.44
2024-05-09T20:32:04.769Z,13.48
2024-05-09T20:34:51.665Z,13.50
2024-05-09T20:37:36.625Z,13.46
2024-05-09T20:40:28.897Z,13.43
2024-05-09T20:43:18.589Z,13.42
2024-05-09T20:46:04.247Z,13.29
2024-05-09T20:48:49.451Z,13.40
2024-05-09T20:51:34.905Z,13.27
2024-05-09T20:54:20.519Z,13.06
2024-05-09T20:57:06.370Z,13.07
2024-05-09T20:59:51.738Z,13.38
2024-05-09T21:02:38.147Z,13.22
2024-05-09T21:05:23.413Z,13.03
2024-05-09T21:08:09.184Z,12.73
2024-05-09T21:10:54.642Z,12.77
2024-05-09T21:13:39.617Z,12.72
2024-05-09T21:16:24.724Z,12.53
2024-05-09T21:19:10.239Z,12.40
2024-05-09T21:21:55.947Z,12.38
2024-05-09T21:24:41.481Z,12.34
2024-05-09T21:27:26.950Z,12.46
2024-05-09T21:30:18.692Z,12.12
2024-05-09T21:33:14.122Z,12.26
2024-05-09T21:36:00.546Z,12.44
2024-05-09T21:38:45.929Z,12.29
2024-05-09T21:41:31.033Z,12.17
2024-05-09T21:44:16.095Z,12.09
2024-05-09T21:47:01.455Z,12.12
2024-05-09T21:49:46.577Z,12.04
2024-05-09T21:52:31.685Z,12.09
2024-05-09T21:55:17.115Z,12.09
2024-05-09T21:58:03.248Z,12.17
2024-05-09T22:00:49.202Z,12.12
2024-05-09T22:03:34.824Z,12.10
2024-05-09T22:06:20.069Z,11.94
2024-05-09T22:09:05.689Z,11.97
2024-05-09T22:11:52.950Z,11.91
2024-05-09T22:14:39.941Z,11.87
2024-05-09T22:17:25.187Z,11.99
2024-05-09T22:20:18.075Z,11.80
2024-05-09T22:23:08.711Z,11.76
2024-05-09T22:25:54.271Z,11.67
2024-05-09T22:28:39.225Z,11.65
2024-05-09T22:31:24.382Z,11.59
2024-05-09T22:34:09.870Z,11.56
2024-05-09T22:36:55.368Z,11.43
2024-05-09T22:39:40.975Z,11.30
2024-05-09T22:42:27.215Z,11.25
2024-05-09T22:45:12.516Z,11.06
2024-05-09T22:47:57.917Z,11.32
2024-05-09T22:50:43.539Z,11.22
2024-05-09T22:53:28.928Z,11.09
2024-05-09T22:56:14.985Z,11.13
2024-05-09T22:59:01.289Z,10.95
2024-05-09T23:01:47.293Z,10.91
2024-05-09T23:04:32.667Z,10.83
2024-05-09T23:07:18.336Z,10.71
2024-05-09T23:10:06.622Z,10.70
2024-05-09T23:12:56.293Z,10.77
2024-05-09T23:15:41.917Z,10.68
2024-05-09T23:18:27.157Z,10.77
2024-05-09T23:21:12.512Z,10.57
2024-05-09T23:23:57.659Z,10.52
2024-05-09T23:26:46.025Z,10.64
2024-05-09T23:29:31.563Z,10.45
2024-05-09T23:32:16.957Z,10.32
2024-05-09T23:35:02.552Z,10.37
2024-05-09T23:37:48.108Z,10.29
2024-05-09T23:40:39.264Z,10.28
2024-05-09T23:43:26.456Z,10.22
2024-05-09T23:46:11.899Z,10.25
2024-05-09T23:48:57.143Z,10.26
2024-05-09T23:51:42.704Z,10.37
2024-05-09T23:54:28.312Z,10.18
2024-05-09T23:57:13.539Z,10.22
